sensor_id;sensor_type;location;lat;lon;timestamp;pressure;altitude;pressure_sealevel;temperature;humidity
70053;BME280;57398;52.032;4.376;2024-01-10T00:01:04;102530.25;;;-4.78;nan
70053;BME280;57398;52.032;4.376;2024-01-10T00:03:52;102516.69;;;-4.77;nan
70053;BME280;57398;52.032;4.376;2024-01-10T00:06:40;102497.25;;;-4.76;nan
70053;BME280;57398;52.032;4.376;2024-01-10T00:09:29;102503.44;;;-4.82;nan
70053;BME280;57398;52.032;4.376;2024-01-10T00:12:19;102498.41;;;-4.84;nan
70053;BME280;57398;52.032;4.376;2024-01-10T00:17:55;102477.84;;;-4.95;nan
70053;BME280;57398;52.032;4.376;2024-01-10T00:20:44;102423.59;;;-4.91;nan
70053;BME280;57398;52.032;4.376;2024-01-10T00:23:32;102383.84;;;-4.90;nan
70053;BME280;57398;52.032;4.376;2024-01-10T00:26:20;102323.25;;;-4.95;nan
70053;BME280;57398;52.032;4.376;2024-01-10T00:29:10;102322.78;;;-5.01;nan
70053;BME280;57398;52.032;4.376;2024-01-10T00:34:46;102288.50;;;-5.09;nan
70053;BME280;57398;52.032;4.376;2024-01-10T00:37:35;102285.28;;;-5.11;nan
70053;BME280;57398;52.032;4.376;2024-01-10T00:40:23;102272.00;;;-5.16;nan
70053;BME280;57398;52.032;4.376;2024-01-10T00:43:11;102233.25;;;-5.18;nan
70053;BME280;57398;52.032;4.376;2024-01-10T00:46:01;102245.78;;;-5.15;nan
70053;BME280;57398;52.032;4.376;2024-01-10T00:48:49;102220.84;;;-5.22;nan
70053;BME280;57398;52.032;4.376;2024-01-10T00:51:38;102183.75;;;-5.23;nan
70053;BME280;57398;52.032;4.376;2024-01-10T00:54:26;102171.91;;;-5.23;nan
70053;BME280;57398;52.032;4.376;2024-01-10T00:57:14;102158.69;;;-5.28;nan
70053;BME280;57398;52.032;4.376;2024-01-10T01:00:03;102122.72;;;-5.35;nan
70053;BME280;57398;52.032;4.376;2024-01-10T01:02:53;102095.53;;;-5.31;nan
70053;BME280;57398;52.032;4.376;2024-01-10T01:05:41;102086.47;;;-5.35;nan
70053;BME280;57398;52.032;4.376;2024-01-10T01:08:29;102067.81;;;-5.34;nan
70053;BME280;57398;52.032;4.376;2024-01-10T01:11:17;102052.31;;;-5.44;nan
70053;BME280;57398;52.032;4.376;2024-01-10T01:19:43;101986.94;;;-5.52;nan
70053;BME280;57398;52.032;4.376;2024-01-10T01:22:32;101962.75;;;-5.57;nan
70053;BME280;57398;52.032;4.376;2024-01-10T01:25:20;101976.31;;;-5.58;nan
70053;BME280;57398;52.032;4.376;2024-01-10T01:30:56;101930.84;;;-5.60;nan
70053;BME280;57398;52.032;4.376;2024-01-10T01:33:44;101917.38;;;-5.60;nan
70053;BME280;57398;52.032;4.376;2024-01-10T01:36:34;101900.16;;;-5.70;nan
70053;BME280;57398;52.032;4.376;2024-01-10T01:42:10;101906.63;;;-5.80;nan
70053;BME280;57398;52.032;4.376;2024-01-10T01:44:58;101872.94;;;-5.80;nan
70053;BME280;57398;52.032;4.376;2024-01-10T01:47:46;101881.59;;;-5.84;nan
70053;BME280;57398;52.032;4.376;2024-01-10T01:50:35;101872.38;;;-5.85;nan
70053;BME280;57398;52.032;4.376;2024-01-10T01:53:24;101860.34;;;-5.82;nan
70053;BME280;57398;52.032;4.376;2024-01-10T01:56:13;101866.31;;;-5.83;nan
70053;BME280;57398;52.032;4.376;2024-01-10T01:59:03;101853.59;;;-5.81;nan
70053;BME280;57398;52.032;4.376;2024-01-10T02:07:30;101844.91;;;-5.77;nan
70053;BME280;57398;52.032;4.376;2024-01-10T02:10:20;101817.81;;;-5.75;nan
70053;BME280;57398;52.032;4.376;2024-01-10T02:13:08;101828.91;;;-5.78;nan
70053;BME280;57398;52.032;4.376;2024-01-10T02:15:58;101820.34;;;-5.75;nan
70053;BME280;57398;52.032;4.376;2024-01-10T02:18:46;101840.69;;;-5.77;nan
70053;BME280;57398;52.032;4.376;2024-01-10T02:21:35;101824.31;;;-5.71;nan
70053;BME280;57398;52.032;4.376;2024-01-10T02:24:23;101809.06;;;-5.70;nan
70053;BME280;57398;52.032;4.376;2024-01-10T02:27:12;101808.94;;;-5.68;nan
70053;BME280;57398;52.032;4.376;2024-01-10T02:30:05;101808.41;;;-5.73;nan
70053;BME280;57398;52.032;4.376;2024-01-10T02:32:53;101792.34;;;-5.72;nan
70053;BME280;57398;52.032;4.376;2024-01-10T02:35:41;101805.25;;;-5.77;nan
70053;BME280;57398;52.032;4.376;2024-01-10T02:38:29;101779.94;;;-5.77;nan
70053;BME280;57398;52.032;4.376;2024-01-10T02:41:18;101775.97;;;-5.81;nan
70053;BME280;57398;52.032;4.376;2024-01-10T02:46:55;101758.25;;;-5.81;nan
70053;BME280;57398;52.032;4.376;2024-01-10T02:49:44;101753.00;;;-5.78;nan
70053;BME280;57398;52.032;4.376;2024-01-10T02:52:32;101755.25;;;-5.73;nan
70053;BME280;57398;52.032;4.376;2024-01-10T02:55:20;101759.53;;;-5.74;nan
70053;BME280;57398;52.032;4.376;2024-01-10T02:58:08;101729.88;;;-5.72;nan
70053;BME280;57398;52.032;4.376;2024-01-10T03:00:58;101768.22;;;-5.63;nan
70053;BME280;57398;52.032;4.376;2024-01-10T03:03:48;101752.66;;;-5.72;nan
70053;BME280;57398;52.032;4.376;2024-01-10T03:06:36;101782.28;;;-5.74;nan
70053;BME280;57398;52.032;4.376;2024-01-10T03:09:24;101775.03;;;-5.80;nan
70053;BME280;57398;52.032;4.376;2024-01-10T03:12:12;101761.25;;;-5.74;nan
70053;BME280;57398;52.032;4.376;2024-01-10T03:15:00;101757.44;;;-5.67;nan
70053;BME280;57398;52.032;4.376;2024-01-10T03:17:50;101765.31;;;-5.72;nan
70053;BME280;57398;52.032;4.376;2024-01-10T03:20:38;101772.63;;;-5.67;nan
70053;BME280;57398;52.032;4.376;2024-01-10T03:23:26;101775.16;;;-5.67;nan
70053;BME280;57398;52.032;4.376;2024-01-10T03:26:15;101772.81;;;-5.70;nan
70053;BME280;57398;52.032;4.376;2024-01-10T03:29:03;101761.13;;;-5.73;nan
70053;BME280;57398;52.032;4.376;2024-01-10T03:31:51;101754.72;;;-5.64;nan
70053;BME280;57398;52.032;4.376;2024-01-10T03:37:30;101766.31;;;-5.74;nan
70053;BME280;57398;52.032;4.376;2024-01-10T03:40:18;101777.56;;;-5.80;nan
70053;BME280;57398;52.032;4.376;2024-01-10T03:43:06;101788.34;;;-5.76;nan
70053;BME280;57398;52.032;4.376;2024-01-10T03:45:57;101781.66;;;-5.77;nan
70053;BME280;57398;52.032;4.376;2024-01-10T03:48:46;101788.06;;;-5.86;nan
70053;BME280;57398;52.032;4.376;2024-01-10T03:51:37;101756.25;;;-5.90;nan
70053;BME280;57398;52.032;4.376;2024-01-10T03:54:27;101754.38;;;-6.01;nan
70053;BME280;57398;52.032;4.376;2024-01-10T03:57:15;101761.47;;;-6.07;nan
70053;BME280;57398;52.032;4.376;2024-01-10T04:00:04;101768.91;;;-6.04;nan
70053;BME280;57398;52.032;4.376;2024-01-10T04:02:53;101736.19;;;-6.07;nan
70053;BME280;57398;52.032;4.376;2024-01-10T04:05:41;101736.91;;;-6.05;nan
70053;BME280;57398;52.032;4.376;2024-01-10T04:08:31;101733.50;;;-6.04;nan
70053;BME280;57398;52.032;4.376;2024-01-10T04:11:19;101712.28;;;-6.02;nan
70053;BME280;57398;52.032;4.376;2024-01-10T04:14:07;101717.50;;;-6.05;nan
70053;BME280;57398;52.032;4.376;2024-01-10T04:16:56;101693.03;;;-6.04;nan
70053;BME280;57398;52.032;4.376;2024-01-10T04:19:44;101704.03;;;-6.05;nan
70053;BME280;57398;52.032;4.376;2024-01-10T04:22:32;101686.53;;;-6.08;nan
70053;BME280;57398;52.032;4.376;2024-01-10T04:25:22;101714.00;;;-6.02;nan
70053;BME280;57398;52.032;4.376;2024-01-10T04:28:10;101708.22;;;-6.04;nan
70053;BME280;57398;52.032;4.376;2024-01-10T04:30:58;101693.13;;;-6.06;nan
70053;BME280;57398;52.032;4.376;2024-01-10T04:33:46;101657.78;;;-6.07;nan
70053;BME280;57398;52.032;4.376;2024-01-10T04:36:34;101687.59;;;-6.13;nan
70053;BME280;57398;52.032;4.376;2024-01-10T04:39:23;101663.91;;;-6.12;nan
70053;BME280;57398;52.032;4.376;2024-01-10T04:42:13;101679.47;;;-6.18;nan
70053;BME280;57398;52.032;4.376;2024-01-10T04:47:50;101669.53;;;-6.06;nan
70053;BME280;57398;52.032;4.376;2024-01-10T04:50:38;101653.66;;;-6.08;nan
70053;BME280;57398;52.032;4.376;2024-01-10T04:53:26;101684.88;;;-6.09;nan
70053;BME280;57398;52.032;4.376;2024-01-10T04:56:15;101678.94;;;-6.08;nan
70053;BME280;57398;52.032;4.376;2024-01-10T04:59:04;101663.50;;;-6.04;nan
70053;BME280;57398;52.032;4.376;2024-01-10T05:01:53;101698.81;;;-6.02;nan
70053;BME280;57398;52.032;4.376;2024-01-10T05:04:41;101694.00;;;-6.07;nan
70053;BME280;57398;52.032;4.376;2024-01-10T05:07:29;101690.59;;;-6.06;nan
70053;BME280;57398;52.032;4.376;2024-01-10T05:10:18;101681.47;;;-6.08;nan
70053;BME280;57398;52.032;4.376;2024-01-10T05:13:06;101674.88;;;-6.11;nan
70053;BME280;57398;52.032;4.376;2024-01-10T05:15:55;101707.03;;;-6.13;nan
70053;BME280;57398;52.032;4.376;2024-01-10T05:18:44;101680.81;;;-6.12;nan
70053;BME280;57398;52.032;4.376;2024-01-10T05:21:33;101685.72;;;-6.09;nan
70053;BME280;57398;52.032;4.376;2024-01-10T05:27:09;101674.41;;;-6.18;nan
70053;BME280;57398;52.032;4.376;2024-01-10T05:29:58;101696.25;;;-6.17;nan
70053;BME280;57398;52.032;4.376;2024-01-10T05:32:48;101711.69;;;-6.21;nan
70053;BME280;57398;52.032;4.376;2024-01-10T05:35:37;101677.19;;;-6.22;nan
70053;BME280;57398;52.032;4.376;2024-01-10T05:38:26;101681.00;;;-6.29;nan
70053;BME280;57398;52.032;4.376;2024-01-10T05:41:14;101683.97;;;-6.23;nan
70053;BME280;57398;52.032;4.376;2024-01-10T05:44:02;101689.19;;;-6.26;nan
70053;BME280;57398;52.032;4.376;2024-01-10T05:46:51;101689.03;;;-6.23;nan
70053;BME280;57398;52.032;4.376;2024-01-10T05:49:41;101670.97;;;-6.17;nan
70053;BME280;57398;52.032;4.376;2024-01-10T05:52:30;101666.91;;;-6.19;nan
70053;BME280;57398;52.032;4.376;2024-01-10T05:58:07;101679.09;;;-6.12;nan
70053;BME280;57398;52.032;4.376;2024-01-10T06:00:56;101697.63;;;-6.11;nan
70053;BME280;57398;52.032;4.376;2024-01-10T06:03:44;101694.72;;;-6.19;nan
70053;BME280;57398;52.032;4.376;2024-01-10T06:06:34;101699.78;;;-6.19;nan
70053;BME280;57398;52.032;4.376;2024-01-10T06:09:22;101722.00;;;-6.10;nan
70053;BME280;57398;52.032;4.376;2024-01-10T06:12:10;101717.41;;;-6.03;nan
70053;BME280;57398;52.032;4.376;2024-01-10T06:14:59;101697.63;;;-6.11;nan
70053;BME280;57398;52.032;4.376;2024-01-10T06:17:47;101708.84;;;-6.01;nan
70053;BME280;57398;52.032;4.376;2024-01-10T06:20:37;101724.19;;;-6.04;nan
70053;BME280;57398;52.032;4.376;2024-01-10T06:23:28;101749.41;;;-6.02;nan
70053;BME280;57398;52.032;4.376;2024-01-10T06:26:16;101715.06;;;-6.06;nan
70053;BME280;57398;52.032;4.376;2024-01-10T06:29:04;101756.00;;;-6.00;nan
70053;BME280;57398;52.032;4.376;2024-01-10T06:31:53;101773.78;;;-6.01;nan
70053;BME280;57398;52.032;4.376;2024-01-10T06:34:43;101768.66;;;-6.00;nan
70053;BME280;57398;52.032;4.376;2024-01-10T06:37:31;101774.69;;;-6.02;nan
70053;BME280;57398;52.032;4.376;2024-01-10T06:40:22;101754.69;;;-6.07;nan
70053;BME280;57398;52.032;4.376;2024-01-10T06:43:10;101753.38;;;-5.98;nan
70053;BME280;57398;52.032;4.376;2024-01-10T06:45:58;101753.63;;;-6.03;nan
70053;BME280;57398;52.032;4.376;2024-01-10T06:48:46;101747.28;;;-6.10;nan
70053;BME280;57398;52.032;4.376;2024-01-10T06:51:35;101750.16;;;-6.16;nan
70053;BME280;57398;52.032;4.376;2024-01-10T06:54:23;101748.22;;;-6.11;nan
70053;BME280;57398;52.032;4.376;2024-01-10T06:57:13;101747.00;;;-6.20;nan
70053;BME280;57398;52.032;4.376;2024-01-10T07:00:01;101748.47;;;-6.16;nan
70053;BME280;57398;52.032;4.376;2024-01-10T07:02:53;101744.03;;;-6.12;nan
70053;BME280;57398;52.032;4.376;2024-01-10T07:05:41;101744.22;;;-6.15;nan
70053;BME280;57398;52.032;4.376;2024-01-10T07:08:31;101749.47;;;-6.18;nan
70053;BME280;57398;52.032;4.376;2024-01-10T07:11:19;101759.41;;;-6.15;nan
70053;BME280;57398;52.032;4.376;2024-01-10T07:14:09;101754.81;;;-6.08;nan
70053;BME280;57398;52.032;4.376;2024-01-10T07:16:57;101766.72;;;-6.11;nan
70053;BME280;57398;52.032;4.376;2024-01-10T07:19:46;101770.88;;;-6.09;nan
70053;BME280;57398;52.032;4.376;2024-01-10T07:22:34;101776.84;;;-6.11;nan
70053;BME280;57398;52.032;4.376;2024-01-10T07:25:23;101777.84;;;-6.13;nan
70053;BME280;57398;52.032;4.376;2024-01-10T07:28:12;101769.03;;;-6.22;nan
70053;BME280;57398;52.032;4.376;2024-01-10T07:31:01;101769.84;;;-6.21;nan
70053;BME280;57398;52.032;4.376;2024-01-10T07:33:50;101775.91;;;-6.24;nan
70053;BME280;57398;52.032;4.376;2024-01-10T07:36:41;101777.53;;;-6.23;nan
70053;BME280;57398;52.032;4.376;2024-01-10T07:39:30;101779.72;;;-6.17;nan
70053;BME280;57398;52.032;4.376;2024-01-10T07:42:18;101787.41;;;-6.18;nan
70053;BME280;57398;52.032;4.376;2024-01-10T07:45:07;101791.78;;;-6.22;nan
70053;BME280;57398;52.032;4.376;2024-01-10T07:47:57;101811.78;;;-6.17;nan
70053;BME280;57398;52.032;4.376;2024-01-10T07:50:45;101816.75;;;-6.16;nan
70053;BME280;57398;52.032;4.376;2024-01-10T07:53:34;101831.75;;;-6.13;nan
70053;BME280;57398;52.032;4.376;2024-01-10T07:56:22;101846.00;;;-6.12;nan
70053;BME280;57398;52.032;4.376;2024-01-10T07:59:11;101846.00;;;-6.12;nan
70053;BME280;57398;52.032;4.376;2024-01-10T08:02:02;101846.38;;;-6.18;nan
70053;BME280;57398;52.032;4.376;2024-01-10T08:04:51;101849.22;;;-6.24;nan
70053;BME280;57398;52.032;4.376;2024-01-10T08:07:40;101847.25;;;-6.19;nan
70053;BME280;57398;52.032;4.376;2024-01-10T08:10:28;101848.72;;;-6.15;nan
70053;BME280;57398;52.032;4.376;2024-01-10T08:13:17;101868.78;;;-6.12;nan
70053;BME280;57398;52.032;4.376;2024-01-10T08:16:06;101870.25;;;-6.07;nan
70053;BME280;57398;52.032;4.376;2024-01-10T08:18:55;101876.84;;;-6.05;nan
70053;BME280;57398;52.032;4.376;2024-01-10T08:21:46;101890.47;;;-6.07;nan
70053;BME280;57398;52.032;4.376;2024-01-10T08:24:38;101898.22;;;-5.95;nan
70053;BME280;57398;52.032;4.376;2024-01-10T08:27:27;101897.41;;;-5.95;nan
70053;BME280;57398;52.032;4.376;2024-01-10T08:30:15;101903.72;;;-5.88;nan
70053;BME280;57398;52.032;4.376;2024-01-10T08:33:03;101910.75;;;-5.93;nan
70053;BME280;57398;52.032;4.376;2024-01-10T08:35:52;101919.16;;;-5.93;nan
70053;BME280;57398;52.032;4.376;2024-01-10T08:38:42;101923.88;;;-5.86;nan
70053;BME280;57398;52.032;4.376;2024-01-10T08:41:30;101928.03;;;-5.85;nan
70053;BME280;57398;52.032;4.376;2024-01-10T08:44:19;101940.81;;;-5.73;nan
70053;BME280;57398;52.032;4.376;2024-01-10T08:47:07;101949.97;;;-5.70;nan
70053;BME280;57398;52.032;4.376;2024-01-10T08:49:58;101969.00;;;-5.63;nan
70053;BME280;57398;52.032;4.376;2024-01-10T08:52:46;101979.47;;;-5.55;nan
70053;BME280;57398;52.032;4.376;2024-01-10T08:55:36;102009.22;;;-5.42;nan
70053;BME280;57398;52.032;4.376;2024-01-10T08:58:24;102031.88;;;-5.41;nan
70053;BME280;57398;52.032;4.376;2024-01-10T09:01:13;102038.69;;;-5.41;nan
70053;BME280;57398;52.032;4.376;2024-01-10T09:04:03;102038.59;;;-5.40;nan
70053;BME280;57398;52.032;4.376;2024-01-10T09:06:52;102062.44;;;-5.28;nan
70053;BME280;57398;52.032;4.376;2024-01-10T09:09:41;102069.13;;;-5.27;nan
70053;BME280;57398;52.032;4.376;2024-01-10T09:12:30;102081.19;;;-5.16;nan
70053;BME280;57398;52.032;4.376;2024-01-10T09:15:19;102101.22;;;-5.12;nan
70053;BME280;57398;52.032;4.376;2024-01-10T09:18:07;102119.59;;;-5.08;nan
70053;BME280;57398;52.032;4.376;2024-01-10T09:20:55;102157.75;;;-4.95;nan
70053;BME280;57398;52.032;4.376;2024-01-10T09:23:44;102198.75;;;-4.89;nan
70053;BME280;57398;52.032;4.376;2024-01-10T09:26:32;102237.34;;;-4.84;nan
70053;BME280;57398;52.032;4.376;2024-01-10T09:29:22;102294.25;;;-4.73;nan
70053;BME280;57398;52.032;4.376;2024-01-10T09:32:10;102326.31;;;-4.72;nan
70053;BME280;57398;52.032;4.376;2024-01-10T09:34:59;102395.19;;;-4.64;nan
70053;BME280;57398;52.032;4.376;2024-01-10T09:37:47;102471.44;;;-4.51;nan
70053;BME280;57398;52.032;4.376;2024-01-10T09:40:36;102553.44;;;-4.51;nan
70053;BME280;57398;52.032;4.376;2024-01-10T09:43:24;102623.81;;;-4.38;nan
70053;BME280;57398;52.032;4.376;2024-01-10T09:46:14;102696.41;;;-4.36;nan
70053;BME280;57398;52.032;4.376;2024-01-10T09:49:06;102774.94;;;-4.33;nan
70053;BME280;57398;52.032;4.376;2024-01-10T09:51:58;102837.78;;;-4.21;nan
70053;BME280;57398;52.032;4.376;2024-01-10T09:54:48;102877.34;;;-4.16;nan
70053;BME280;57398;52.032;4.376;2024-01-10T09:57:41;102907.38;;;-4.07;nan
70053;BME280;57398;52.032;4.376;2024-01-10T10:00:29;102930.13;;;-4.06;nan
70053;BME280;57398;52.032;4.376;2024-01-10T10:03:21;102944.94;;;-3.96;nan
70053;BME280;57398;52.032;4.376;2024-01-10T10:06:10;102941.25;;;-3.89;nan
70053;BME280;57398;52.032;4.376;2024-01-10T10:09:01;102923.47;;;-3.89;nan
70053;BME280;57398;52.032;4.376;2024-01-10T10:11:53;102928.25;;;-3.83;nan
70053;BME280;57398;52.032;4.376;2024-01-10T10:14:42;102918.91;;;-3.83;nan
70053;BME280;57398;52.032;4.376;2024-01-10T10:17:30;102906.66;;;-3.74;nan
70053;BME280;57398;52.032;4.376;2024-01-10T10:20:22;102924.06;;;-3.67;nan
70053;BME280;57398;52.032;4.376;2024-01-10T10:23:11;102936.34;;;-3.58;nan
70053;BME280;57398;52.032;4.376;2024-01-10T10:26:13;102959.59;;;-3.48;nan
70053;BME280;57398;52.032;4.376;2024-01-10T10:29:07;102978.63;;;-3.39;nan
70053;BME280;57398;52.032;4.376;2024-01-10T10:31:55;103006.16;;;-3.30;nan
70053;BME280;57398;52.032;4.376;2024-01-10T10:34:43;103011.97;;;-3.28;nan
70053;BME280;57398;52.032;4.376;2024-01-10T10:37:33;103030.25;;;-3.20;nan
70053;BME280;57398;52.032;4.376;2024-01-10T10:40:21;103054.31;;;-3.09;nan
70053;BME280;57398;52.032;4.376;2024-01-10T10:43:13;103084.47;;;-3.02;nan
70053;BME280;57398;52.032;4.376;2024-01-10T10:46:08;103087.53;;;-2.95;nan
70053;BME280;57398;52.032;4.376;2024-01-10T10:48:59;103132.13;;;-2.88;nan
70053;BME280;57398;52.032;4.376;2024-01-10T10:51:53;103161.28;;;-2.78;nan
70053;BME280;57398;52.032;4.376;2024-01-10T10:54:44;103185.31;;;-2.66;nan
70053;BME280;57398;52.032;4.376;2024-01-10T10:57:34;103195.91;;;-2.56;nan
70053;BME280;57398;52.032;4.376;2024-01-10T11:00:23;103220.38;;;-2.54;nan
70053;BME280;57398;52.032;4.376;2024-01-10T11:03:14;103233.75;;;-2.50;nan
70053;BME280;57398;52.032;4.376;2024-01-10T11:06:05;103241.81;;;-2.40;nan
70053;BME280;57398;52.032;4.376;2024-01-10T11:08:56;103252.66;;;-2.37;nan
70053;BME280;57398;52.032;4.376;2024-01-10T11:12:02;103260.75;;;-2.28;nan
70053;BME280;57398;52.032;4.376;2024-01-10T11:15:10;103269.91;;;-2.24;nan
70053;BME280;57398;52.032;4.376;2024-01-10T11:18:28;103251.47;;;-2.12;nan
70053;BME280;57398;52.032;4.376;2024-01-10T11:21:24;103253.25;;;-2.14;nan
70053;BME280;57398;52.032;4.376;2024-01-10T11:24:17;103259.91;;;-2.12;nan
70053;BME280;57398;52.032;4.376;2024-01-10T11:27:10;103233.41;;;-2.07;nan
70053;BME280;57398;52.032;4.376;2024-01-10T11:30:00;103247.53;;;-2.02;nan
70053;BME280;57398;52.032;4.376;2024-01-10T11:32:50;103250.84;;;-2.00;nan
70053;BME280;57398;52.032;4.376;2024-01-10T11:35:38;103240.06;;;-2.05;nan
70053;BME280;57398;52.032;4.376;2024-01-10T11:38:27;103222.75;;;-1.98;nan
70053;BME280;57398;52.032;4.376;2024-01-10T11:41:20;103229.59;;;-1.99;nan
70053;BME280;57398;52.032;4.376;2024-01-10T11:44:49;103239.31;;;-1.90;nan
70053;BME280;57398;52.032;4.376;2024-01-10T11:47:39;103231.22;;;-1.80;nan
70053;BME280;57398;52.032;4.376;2024-01-10T11:50:28;103234.34;;;-1.75;nan
70053;BME280;57398;52.032;4.376;2024-01-10T11:53:39;103220.69;;;-1.74;nan
70053;BME280;57398;52.032;4.376;2024-01-10T11:56:37;103218.38;;;-1.79;nan
70053;BME280;57398;52.032;4.376;2024-01-10T11:59:29;103230.00;;;-1.73;nan
70053;BME280;57398;52.032;4.376;2024-01-10T12:02:21;103232.06;;;-1.64;nan
70053;BME280;57398;52.032;4.376;2024-01-10T12:05:11;103208.31;;;-1.64;nan
70053;BME280;57398;52.032;4.376;2024-01-10T12:08:00;103218.41;;;-1.63;nan
70053;BME280;57398;52.032;4.376;2024-01-10T12:10:49;103214.81;;;-1.59;nan
70053;BME280;57398;52.032;4.376;2024-01-10T12:13:37;103213.06;;;-1.58;nan
70053;BME280;57398;52.032;4.376;2024-01-10T12:16:25;103206.84;;;-1.53;nan
70053;BME280;57398;52.032;4.376;2024-01-10T12:19:15;103216.13;;;-1.52;nan
70053;BME280;57398;52.032;4.376;2024-01-10T12:22:03;103229.47;;;-1.46;nan
70053;BME280;57398;52.032;4.376;2024-01-10T12:24:54;103234.41;;;-1.43;nan
70053;BME280;57398;52.032;4.376;2024-01-10T12:27:42;103239.50;;;-1.43;nan
70053;BME280;57398;52.032;4.376;2024-01-10T12:30:31;103235.41;;;-1.46;nan
70053;BME280;57398;52.032;4.376;2024-01-10T12:33:22;103255.63;;;-1.43;nan
70053;BME280;57398;52.032;4.376;2024-01-10T12:36:12;103248.78;;;-1.42;nan
70053;BME280;57398;52.032;4.376;2024-01-10T12:39:00;103261.41;;;-1.39;nan
70053;BME280;57398;52.032;4.376;2024-01-10T12:41:48;103278.84;;;-1.32;nan
70053;BME280;57398;52.032;4.376;2024-01-10T12:44:37;103272.34;;;-1.21;nan
70053;BME280;57398;52.032;4.376;2024-01-10T12:47:25;103253.28;;;-1.14;nan
70053;BME280;57398;52.032;4.376;2024-01-10T12:50:14;103231.16;;;-1.14;nan
70053;BME280;57398;52.032;4.376;2024-01-10T12:53:03;103226.03;;;-1.14;nan
70053;BME280;57398;52.032;4.376;2024-01-10T12:55:51;103242.09;;;-1.12;nan
70053;BME280;57398;52.032;4.376;2024-01-10T12:58:40;103308.16;;;-1.07;nan
70053;BME280;57398;52.032;4.376;2024-01-10T13:01:29;103393.09;;;-1.05;nan
70053;BME280;57398;52.032;4.376;2024-01-10T13:04:17;103379.13;;;-0.98;nan
70053;BME280;57398;52.032;4.376;2024-01-10T13:07:06;103717.91;;;-1.04;nan
70053;BME280;57398;52.032;4.376;2024-01-10T13:09:55;103090.16;;;-1.01;nan
70053;BME280;57398;52.032;4.376;2024-01-10T13:12:44;102734.59;;;-0.99;nan
70053;BME280;57398;52.032;4.376;2024-01-10T13:15:32;102848.28;;;-0.95;nan
70053;BME280;57398;52.032;4.376;2024-01-10T13:18:20;102946.16;;;-0.96;nan
70053;BME280;57398;52.032;4.376;2024-01-10T13:21:08;103054.19;;;-0.97;nan
70053;BME280;57398;52.032;4.376;2024-01-10T13:23:57;103090.09;;;-1.00;nan
70053;BME280;57398;52.032;4.376;2024-01-10T13:26:47;103087.53;;;-1.00;nan
70053;BME280;57398;52.032;4.376;2024-01-10T13:29:36;103106.78;;;-0.94;nan
70053;BME280;57398;52.032;4.376;2024-01-10T13:32:25;103105.22;;;-0.97;nan
70053;BME280;57398;52.032;4.376;2024-01-10T13:35:15;103076.34;;;-0.97;nan
70053;BME280;57398;52.032;4.376;2024-01-10T13:38:04;103069.03;;;-1.03;nan
70053;BME280;57398;52.032;4.376;2024-01-10T13:40:52;103045.78;;;-1.13;nan
70053;BME280;57398;52.032;4.376;2024-01-10T13:43:42;103035.84;;;-1.18;nan
70053;BME280;57398;52.032;4.376;2024-01-10T13:46:30;103035.84;;;-1.18;nan
70053;BME280;57398;52.032;4.376;2024-01-10T13:49:18;103029.09;;;-1.19;nan
70053;BME280;57398;52.032;4.376;2024-01-10T13:52:07;103012.81;;;-1.16;nan
70053;BME280;57398;52.032;4.376;2024-01-10T13:54:55;103002.34;;;-1.12;nan
70053;BME280;57398;52.032;4.376;2024-01-10T13:57:43;102998.50;;;-1.19;nan
70053;BME280;57398;52.032;4.376;2024-01-10T14:00:33;102950.94;;;-1.20;nan
70053;BME280;57398;52.032;4.376;2024-01-10T14:03:21;102960.41;;;-1.22;nan
70053;BME280;57398;52.032;4.376;2024-01-10T14:06:10;102959.25;;;-1.16;nan
70053;BME280;57398;52.032;4.376;2024-01-10T14:08:59;102944.69;;;-1.14;nan
70053;BME280;57398;52.032;4.376;2024-01-10T14:11:47;102946.97;;;-1.10;nan
70053;BME280;57398;52.032;4.376;2024-01-10T14:14:35;102933.47;;;-1.12;nan
70053;BME280;57398;52.032;4.376;2024-01-10T14:17:25;102935.31;;;-1.14;nan
70053;BME280;57398;52.032;4.376;2024-01-10T14:20:13;102909.06;;;-1.16;nan
70053;BME280;57398;52.032;4.376;2024-01-10T14:23:01;102903.31;;;-1.19;nan
70053;BME280;57398;52.032;4.376;2024-01-10T14:25:49;102899.22;;;-1.22;nan
70053;BME280;57398;52.032;4.376;2024-01-10T14:28:40;102903.41;;;-1.21;nan
70053;BME280;57398;52.032;4.376;2024-01-10T14:31:28;102888.00;;;-1.19;nan
70053;BME280;57398;52.032;4.376;2024-01-10T14:34:26;102873.91;;;-1.25;nan
70053;BME280;57398;52.032;4.376;2024-01-10T14:37:14;102879.81;;;-1.24;nan
70053;BME280;57398;52.032;4.376;2024-01-10T14:40:03;102888.13;;;-1.21;nan
70053;BME280;57398;52.032;4.376;2024-01-10T14:42:53;102869.88;;;-1.29;nan
70053;BME280;57398;52.032;4.376;2024-01-10T14:45:41;102864.97;;;-1.32;nan
70053;BME280;57398;52.032;4.376;2024-01-10T14:48:29;102870.81;;;-1.30;nan
70053;BME280;57398;52.032;4.376;2024-01-10T14:51:19;102870.44;;;-1.38;nan
70053;BME280;57398;52.032;4.376;2024-01-10T14:54:07;102870.50;;;-1.40;nan
70053;BME280;57398;52.032;4.376;2024-01-10T14:56:56;102867.69;;;-1.35;nan
70053;BME280;57398;52.032;4.376;2024-01-10T14:59:44;102864.44;;;-1.37;nan
70053;BME280;57398;52.032;4.376;2024-01-10T15:02:33;102869.63;;;-1.39;nan
70053;BME280;57398;52.032;4.376;2024-01-10T15:05:25;102854.84;;;-1.48;nan
70053;BME280;57398;52.032;4.376;2024-01-10T15:08:15;102851.75;;;-1.53;nan
70053;BME280;57398;52.032;4.376;2024-01-10T15:11:04;102856.00;;;-1.54;nan
70053;BME280;57398;52.032;4.376;2024-01-10T15:13:52;102853.66;;;-1.57;nan
70053;BME280;57398;52.032;4.376;2024-01-10T15:16:40;102857.13;;;-1.58;nan
70053;BME280;57398;52.032;4.376;2024-01-10T15:19:28;102847.19;;;-1.62;nan
70053;BME280;57398;52.032;4.376;2024-01-10T15:22:17;102836.53;;;-1.69;nan
70053;BME280;57398;52.032;4.376;2024-01-10T15:25:08;102848.53;;;-1.71;nan
70053;BME280;57398;52.032;4.376;2024-01-10T15:27:57;102852.16;;;-1.75;nan
70053;BME280;57398;52.032;4.376;2024-01-10T15:30:47;102839.59;;;-1.78;nan
70053;BME280;57398;52.032;4.376;2024-01-10T15:33:35;102835.41;;;-1.79;nan
70053;BME280;57398;52.032;4.376;2024-01-10T15:36:24;102853.25;;;-1.79;nan
70053;BME280;57398;52.032;4.376;2024-01-10T15:39:14;102831.66;;;-1.88;nan
70053;BME280;57398;52.032;4.376;2024-01-10T15:42:04;102843.41;;;-1.85;nan
70053;BME280;57398;52.032;4.376;2024-01-10T15:44:52;102836.03;;;-1.90;nan